Time;durP1;ratioP1;P1;durP2;ratioP2;P2;SDS_P1;SDS_P2;PMS_P1;PMS_P2;Temp;Humidity;BMP_temperature;BMP_pressure;BME280_temperature;BME280_humidity;BME280_pressure;Samples;Min_cycle;Max_cycle;Signal;HPM_P1;HPM_P2
2023/05/08 00:00:10;;;;;;;5.03;3.95;;;18.20;99.90;;;;;;4172986;28;20052;-73
2023/05/08 00:02:10;;;;;;;4.25;3.85;;;18.20;99.90;;;;;;4185511;28;20139;-71
2023/05/08 00:04:12;;;;;;;6.60;4.07;;;18.10;99.90;;;;;;4178275;28;20522;-73
2023/05/08 00:06:12;;;;;;;5.40;3.92;;;18.10;99.90;;;;;;4187980;28;20063;-73
2023/05/08 00:08:13;;;;;;;4.00;3.17;;;18.00;99.90;;;;;;4181376;28;20548;-73
2023/05/08 00:10:13;;;;;;;3.80;3.40;;;18.00;99.90;;;;;;4175677;28;20068;-72
2023/05/08 00:12:14;;;;;;;3.63;3.30;;;18.00;99.90;;;;;;4190575;28;20041;-73
2023/05/08 00:14:14;;;;;;;3.58;2.83;;;18.00;99.90;;;;;;4177464;28;20067;-72
2023/05/08 00:16:15;;;;;;;4.32;3.17;;;18.10;99.90;;;;;;4174295;28;20059;-73
2023/05/08 00:18:16;;;;;;;3.70;3.22;;;18.00;99.90;;;;;;4183086;28;20052;-69
2023/05/08 00:20:16;;;;;;;5.35;3.83;;;18.00;99.90;;;;;;4181101;28;20048;-71
2023/05/08 00:22:17;;;;;;;5.45;3.92;;;18.10;99.90;;;;;;4186692;28;20032;-72
2023/05/08 00:24:18;;;;;;;5.07;3.40;;;18.00;99.90;;;;;;4176807;28;20515;-73
2023/05/08 00:26:19;;;;;;;4.00;3.33;;;18.00;99.90;;;;;;4179590;28;20033;-73
2023/05/08 00:28:20;;;;;;;4.95;3.15;;;18.00;99.90;;;;;;4188418;28;20064;-73
2023/05/08 00:30:21;;;;;;;4.57;3.38;;;18.00;99.90;;;;;;4175465;28;20044;-73
2023/05/08 00:32:21;;;;;;;3.20;2.90;;;18.00;99.90;;;;;;4192888;28;20041;-73
2023/05/08 00:34:22;;;;;;;4.05;3.55;;;17.90;99.90;;;;;;4186335;28;20040;-73
2023/05/08 00:36:22;;;;;;;4.10;3.42;;;18.00;99.90;;;;;;4193548;28;20032;-73
2023/05/08 00:38:23;;;;;;;4.82;3.35;;;17.90;99.90;;;;;;4193268;28;20063;-72
2023/05/08 00:40:24;;;;;;;3.88;3.17;;;17.90;99.90;;;;;;4182664;28;20425;-71
2023/05/08 00:42:24;;;;;;;6.43;4.05;;;17.90;99.90;;;;;;4179179;28;20422;-73
2023/05/08 00:44:25;;;;;;;5.40;4.45;;;17.90;99.90;;;;;;4193610;28;20045;-72
2023/05/08 00:46:26;;;;;;;6.25;4.25;;;17.90;99.90;;;;;;4181317;28;20386;-73
2023/05/08 00:48:30;;;;;;;5.78;4.40;;;17.90;99.90;;;;;;4177782;28;20037;-73
2023/05/08 00:50:31;;;;;;;5.35;4.55;;;17.90;99.90;;;;;;4190048;28;20479;-73
2023/05/08 00:52:32;;;;;;;5.13;4.63;;;17.90;99.90;;;;;;4181581;28;20071;-73
2023/05/08 00:54:37;;;;;;;5.43;4.45;;;17.90;99.90;;;;;;4181967;28;20094;-73
2023/05/08 00:56:38;;;;;;;5.53;4.25;;;17.90;99.90;;;;;;4192196;28;20449;-73
2023/05/08 00:58:40;;;;;;;6.43;4.70;;;17.90;99.90;;;;;;4178217;28;22640;-73
2023/05/08 01:00:43;;;;;;;5.78;4.40;;;17.90;99.90;;;;;;4185186;28;20116;-73
2023/05/08 01:02:45;;;;;;;6.35;4.47;;;17.90;99.90;;;;;;4188134;28;20043;-73
2023/05/08 01:04:47;;;;;;;6.00;4.87;;;17.90;99.90;;;;;;4187683;28;20407;-72
2023/05/08 01:06:47;;;;;;;6.37;5.27;;;17.90;99.90;;;;;;4187802;28;20035;-71
2023/05/08 01:08:48;;;;;;;7.90;5.57;;;17.90;99.90;;;;;;4185107;28;20268;-73
2023/05/08 01:11:07;;;;;;;6.22;5.10;;;17.90;99.90;;;;;;4184829;28;20025;-72
2023/05/08 01:13:19;;;;;;;5.70;4.63;;;17.80;99.90;;;;;;4189180;28;20052;-73
2023/05/08 01:15:31;;;;;;;6.53;4.75;;;17.70;99.90;;;;;;4183400;28;20374;-71
2023/05/08 01:17:58;;;;;;;5.63;4.55;;;17.60;99.90;;;;;;4179178;28;20128;-73
2023/05/08 01:20:25;;;;;;;4.20;3.40;;;17.60;99.90;;;;;;4191911;28;20036;-72
2023/05/08 01:22:25;;;;;;;4.40;3.88;;;17.60;99.90;;;;;;4190610;28;20082;-72
2023/05/08 01:24:51;;;;;;;6.47;5.00;;;17.50;99.90;;;;;;4178567;28;20033;-72
2023/05/08 01:26:55;;;;;;;6.97;5.45;;;17.50;99.90;;;;;;4180812;28;20032;-73
2023/05/08 01:29:20;;;;;;;6.78;5.70;;;17.50;99.90;;;;;;4181987;28;20037;-72
2023/05/08 01:31:51;;;;;;;6.43;5.03;;;17.50;99.90;;;;;;4178995;28;20462;-73
2023/05/08 01:34:01;;;;;;;5.63;4.70;;;17.40;99.90;;;;;;4187968;28;20396;-73
2023/05/08 01:36:49;;;;;;;5.65;4.80;;;17.40;99.90;;;;;;4180754;28;20365;-73
2023/05/08 01:39:13;;;;;;;5.88;4.70;;;17.40;99.90;;;;;;4171871;28;20029;-73
2023/05/08 01:41:27;;;;;;;7.20;5.50;;;17.40;99.90;;;;;;4174928;28;20554;-73
2023/05/08 01:43:52;;;;;;;8.32;6.15;;;17.40;99.90;;;;;;4186102;28;20029;-71
2023/05/08 01:45:55;;;;;;;9.88;7.13;;;17.40;99.90;;;;;;4183321;28;20041;-73
2023/05/08 01:48:03;;;;;;;;;;;17.30;99.90;;;;;;4180190;28;20033;-73
2023/05/08 01:50:28;;;;;;;8.75;6.88;;;17.20;99.90;;;;;;4192563;28;19982;-73
2023/05/08 01:52:36;;;;;;;11.05;7.38;;;17.20;99.90;;;;;;4185433;28;20047;-73
2023/05/08 01:54:56;;;;;;;8.30;6.93;;;17.20;99.90;;;;;;4182976;28;20044;-73
2023/05/08 01:56:58;;;;;;;6.32;5.25;;;17.20;99.90;;;;;;4179797;28;20124;-73
2023/05/08 01:59:01;;;;;;;6.75;5.20;;;17.20;99.90;;;;;;4184014;28;20403;-73
2023/05/08 02:01:03;;;;;;;7.97;6.43;;;17.20;99.90;;;;;;4183968;28;20399;-73
2023/05/08 02:03:06;;;;;;;6.13;5.35;;;17.30;99.90;;;;;;4182143;28;20032;-73
2023/05/08 02:05:08;;;;;;;6.78;5.10;;;17.30;99.90;;;;;;4182276;28;20057;-74
2023/05/08 02:07:09;;;;;;;10.05;6.03;;;17.30;99.90;;;;;;4187494;28;20029;-73
2023/05/08 02:09:10;;;;;;;7.07;5.72;;;17.30;99.90;;;;;;4191309;28;20079;-73
2023/05/08 02:11:13;;;;;;;6.85;5.72;;;17.30;99.90;;;;;;4188516;28;20090;-73
2023/05/08 02:13:17;;;;;;;7.35;6.18;;;17.30;99.90;;;;;;4177001;28;20090;-73
2023/05/08 02:15:20;;;;;;;6.97;5.78;;;17.30;99.90;;;;;;4181730;28;20048;-72
2023/05/08 02:17:21;;;;;;;7.93;5.88;;;17.40;99.90;;;;;;4186068;28;20052;-71
2023/05/08 02:19:24;;;;;;;8.30;6.15;;;17.40;99.90;;;;;;4176448;28;20060;-72
2023/05/08 02:21:25;;;;;;;8.40;6.72;;;17.40;99.90;;;;;;4183480;28;20037;-73
2023/05/08 02:23:27;;;;;;;10.30;6.97;;;17.40;99.90;;;;;;4178989;28;20082;-74
2023/05/08 02:25:29;;;;;;;8.25;6.43;;;17.40;99.90;;;;;;4183109;28;20384;-73
2023/05/08 02:27:31;;;;;;;7.37;6.33;;;17.40;99.90;;;;;;4191871;28;20041;-73
2023/05/08 02:29:32;;;;;;;8.52;6.80;;;17.40;99.90;;;;;;4182512;28;20633;-73
2023/05/08 02:31:34;;;;;;;7.78;6.60;;;17.40;99.90;;;;;;4182356;28;20028;-73
2023/05/08 02:33:37;;;;;;;7.30;6.25;;;17.40;99.90;;;;;;4191116;28;20078;-73
2023/05/08 02:35:40;;;;;;;7.00;5.75;;;17.40;99.90;;;;;;4185900;28;20053;-73
2023/05/08 02:37:44;;;;;;;9.43;6.80;;;17.40;99.90;;;;;;4179886;28;20541;-73
2023/05/08 02:39:46;;;;;;;8.52;6.45;;;17.40;99.90;;;;;;4182335;28;20134;-73
2023/05/08 02:41:47;;;;;;;8.07;5.68;;;17.40;99.90;;;;;;4189254;28;20041;-73
2023/05/08 02:43:48;;;;;;;7.13;5.97;;;17.40;99.90;;;;;;4184959;28;20028;-73
2023/05/08 02:46:21;;;;;;;6.82;5.82;;;17.40;99.90;;;;;;4176121;28;20375;-72
2023/05/08 02:48:32;;;;;;;6.68;5.50;;;17.30;99.90;;;;;;4174628;28;20106;-72
2023/05/08 02:50:55;;;;;;;7.63;6.00;;;17.30;99.90;;;;;;4191250;28;20047;-73
2023/05/08 02:53:03;;;;;;;;;;;17.30;99.90;;;;;;4186140;28;20179;-73
2023/05/08 02:55:22;;;;;;;4.78;4.10;;;17.30;99.90;;;;;;4185626;28;19916;-74
2023/05/08 02:57:48;;;;;;;4.90;4.07;;;17.20;99.90;;;;;;4188256;28;20538;-72
2023/05/08 02:59:59;;;;;;;4.35;3.95;;;17.10;99.90;;;;;;4172670;28;20098;-73
2023/05/08 03:02:12;;;;;;;5.03;4.38;;;17.00;99.90;;;;;;4178620;28;20033;-73
2023/05/08 03:04:17;;;;;;;;;;;17.00;99.90;;;;;;4176264;28;20032;-73
2023/05/08 03:06:21;;;;;;;4.72;4.28;;;17.00;99.90;;;;;;4175265;28;19995;-72
2023/05/08 03:08:32;;;;;;;5.50;4.82;;;17.00;99.90;;;;;;4186043;28;20506;-72
2023/05/08 03:10:35;;;;;;;6.43;5.55;;;17.00;99.90;;;;;;4178295;28;20088;-73
2023/05/08 03:12:41;;;;;;;5.93;5.28;;;17.00;99.90;;;;;;4179053;28;20395;-73
2023/05/08 03:14:49;;;;;;;7.30;5.65;;;16.90;99.90;;;;;;4186037;28;20044;-73
2023/05/08 03:16:53;;;;;;;6.38;5.03;;;17.00;99.90;;;;;;4174341;28;20116;-73
2023/05/08 03:18:59;;;;;;;5.65;4.45;;;17.00;99.90;;;;;;4185731;28;20052;-73
2023/05/08 03:21:01;;;;;;;5.47;4.93;;;16.90;99.90;;;;;;4179873;28;20024;-73
2023/05/08 03:23:03;;;;;;;6.75;5.47;;;16.80;99.90;;;;;;4190132;28;20119;-73
2023/05/08 03:25:08;;;;;;;6.90;5.30;;;16.80;99.90;;;;;;4176010;28;20033;-74
2023/05/08 03:27:09;;;;;;;6.60;5.68;;;16.80;99.90;;;;;;4177060;28;20037;-73
2023/05/08 03:29:12;;;;;;;6.45;4.95;;;16.80;99.90;;;;;;4180839;28;20044;-73
2023/05/08 03:31:15;;;;;;;;;;;16.80;99.90;;;;;;4179747;28;20052;-73
2023/05/08 03:33:16;;;;;;;6.40;5.30;;;16.70;99.90;;;;;;4179086;28;20372;-73
2023/05/08 03:35:18;;;;;;;7.10;5.75;;;16.80;99.90;;;;;;4178607;28;20372;-73
2023/05/08 03:37:19;;;;;;;7.60;5.75;;;16.70;99.90;;;;;;4176028;28;20022;-74
2023/05/08 03:39:19;;;;;;;7.55;6.30;;;16.80;99.90;;;;;;4179630;28;20051;-73
2023/05/08 03:41:21;;;;;;;7.85;5.93;;;16.80;99.90;;;;;;4180376;28;20037;-72
2023/05/08 03:43:22;;;;;;;7.18;6.00;;;16.80;99.90;;;;;;4183579;28;20036;-71
2023/05/08 03:45:24;;;;;;;8.45;6.47;;;16.80;99.90;;;;;;4184572;28;20049;-73
2023/05/08 03:47:26;;;;;;;7.37;6.30;;;16.80;99.90;;;;;;4185457;28;20026;-73
2023/05/08 03:49:29;;;;;;;7.10;6.10;;;16.80;99.90;;;;;;4179342;28;20386;-73
2023/05/08 03:51:31;;;;;;;6.75;6.05;;;16.80;99.90;;;;;;4186242;28;20067;-74
2023/05/08 03:53:32;;;;;;;7.57;6.20;;;16.80;99.90;;;;;;4183128;28;20492;-73
2023/05/08 03:55:33;;;;;;;6.80;5.70;;;16.80;99.90;;;;;;4173344;28;20036;-73
2023/05/08 03:57:47;;;;;;;6.80;5.40;;;16.80;99.90;;;;;;4180993;28;20037;-73
2023/05/08 04:00:08;;;;;;;8.25;5.63;;;16.80;99.90;;;;;;4182809;28;20040;-73
2023/05/08 04:02:28;;;;;;;5.65;4.80;;;16.70;99.90;;;;;;4174814;28;20120;-73
2023/05/08 04:04:31;;;;;;;7.18;5.47;;;16.70;99.90;;;;;;4178108;28;20078;-73
2023/05/08 04:06:52;;;;;;;6.97;5.47;;;16.70;99.90;;;;;;4189612;28;20078;-73
2023/05/08 04:08:59;;;;;;;6.60;5.57;;;16.70;99.90;;;;;;4173972;28;20449;-72
2023/05/08 04:11:29;;;;;;;7.13;6.07;;;16.70;99.90;;;;;;4177277;28;20033;-73
2023/05/08 04:13:33;;;;;;;6.50;5.72;;;16.70;99.90;;;;;;4177526;28;20029;-73
2023/05/08 04:15:38;;;;;;;6.85;5.88;;;16.70;99.90;;;;;;4178528;28;20032;-74
2023/05/08 04:17:43;;;;;;;7.50;6.10;;;16.70;99.90;;;;;;4191698;28;20041;-73
2023/05/08 04:19:46;;;;;;;8.52;6.47;;;16.60;99.90;;;;;;4187572;28;20033;-73
2023/05/08 04:21:48;;;;;;;8.20;6.40;;;16.60;99.90;;;;;;4174090;28;20033;-74
2023/05/08 04:23:50;;;;;;;;;;;16.60;99.90;;;;;;4179276;28;20040;-73
2023/05/08 04:25:52;;;;;;;7.47;6.18;;;16.60;99.90;;;;;;4176064;28;19963;-74
2023/05/08 04:27:54;;;;;;;8.88;6.68;;;16.60;99.90;;;;;;4179125;28;20039;-70
2023/05/08 04:29:55;;;;;;;;;;;16.60;99.90;;;;;;4178735;28;20126;-73
2023/05/08 04:31:56;;;;;;;8.00;6.95;;;16.60;99.90;;;;;;4178438;28;20367;-73
2023/05/08 04:33:57;;;;;;;9.82;7.55;;;16.60;99.90;;;;;;4178150;28;20025;-73
2023/05/08 04:36:01;;;;;;;9.73;7.50;;;16.60;99.90;;;;;;4180562;28;20071;-73
2023/05/08 04:38:02;;;;;;;10.20;7.93;;;16.60;99.90;;;;;;4179185;28;20103;-74
2023/05/08 04:40:04;;;;;;;10.85;8.98;;;16.60;99.90;;;;;;4187007;28;20031;-74
2023/05/08 04:42:04;;;;;;;9.40;7.53;;;16.60;99.90;;;;;;4179947;28;20392;-73
2023/05/08 04:44:05;;;;;;;10.15;8.20;;;16.60;99.90;;;;;;4178343;28;20025;-73
2023/05/08 04:46:05;;;;;;;8.90;7.45;;;16.60;99.90;;;;;;4177792;28;20476;-73
2023/05/08 04:48:06;;;;;;;8.85;7.35;;;16.60;99.90;;;;;;4191451;28;20120;-73
2023/05/08 04:50:07;;;;;;;8.27;6.75;;;16.60;99.90;;;;;;4172907;28;20060;-74
2023/05/08 04:52:07;;;;;;;10.38;7.60;;;16.60;99.90;;;;;;4174412;28;20148;-77
2023/05/08 04:54:08;;;;;;;10.38;7.22;;;16.60;99.90;;;;;;4174185;28;20025;-77
2023/05/08 04:56:09;;;;;;;7.90;6.80;;;16.60;99.90;;;;;;4177270;28;20167;-77
2023/05/08 04:58:10;;;;;;;8.45;7.05;;;16.60;99.90;;;;;;4177671;28;20037;-76
2023/05/08 05:00:11;;;;;;;9.00;6.97;;;16.70;99.90;;;;;;4175559;28;20408;-76
2023/05/08 05:02:11;;;;;;;9.65;8.02;;;16.70;99.90;;;;;;4180112;28;20408;-79
2023/05/08 05:04:12;;;;;;;8.18;7.07;;;16.70;99.90;;;;;;4173616;28;22352;-77
2023/05/08 05:06:12;;;;;;;8.60;7.45;;;16.70;99.90;;;;;;4176460;28;20391;-76
2023/05/08 05:08:13;;;;;;;8.57;7.20;;;16.70;99.90;;;;;;4177310;28;20048;-76
2023/05/08 05:10:14;;;;;;;8.48;7.13;;;16.80;99.90;;;;;;4174495;28;20036;-75
2023/05/08 05:12:14;;;;;;;9.30;7.53;;;16.80;99.90;;;;;;4176446;28;20021;-75
2023/05/08 05:14:15;;;;;;;10.25;7.63;;;16.80;99.90;;;;;;4176417;28;20037;-75
2023/05/08 05:16:16;;;;;;;10.13;7.65;;;16.90;99.90;;;;;;4180489;28;20037;-75
2023/05/08 05:18:17;;;;;;;9.82;7.30;;;16.90;99.90;;;;;;4188042;28;20515;-76
2023/05/08 05:20:17;;;;;;;9.15;7.88;;;16.90;99.90;;;;;;4184862;28;20481;-77
2023/05/08 05:22:18;;;;;;;11.60;9.05;;;16.90;99.90;;;;;;4183362;28;20183;-77
2023/05/08 05:24:18;;;;;;;10.05;8.13;;;16.90;99.90;;;;;;4176876;28;20037;-76
2023/05/08 05:26:20;;;;;;;9.13;7.55;;;16.90;99.90;;;;;;4177766;28;20025;-76
2023/05/08 05:28:21;;;;;;;10.43;7.95;;;16.90;99.90;;;;;;4176641;28;20025;-76
2023/05/08 05:30:21;;;;;;;12.63;8.88;;;16.90;99.90;;;;;;4174973;28;21680;-76
2023/05/08 05:32:22;;;;;;;10.75;8.18;;;16.90;99.90;;;;;;4168939;28;20492;-75
2023/05/08 05:34:22;;;;;;;10.88;8.05;;;16.80;99.90;;;;;;4173091;28;20037;-76
2023/05/08 05:36:23;;;;;;;10.80;7.55;;;16.80;99.90;;;;;;4174767;28;20040;-71
2023/05/08 05:38:24;;;;;;;10.85;8.18;;;16.80;99.90;;;;;;4186796;28;20120;-73
2023/05/08 05:40:24;;;;;;;8.27;6.35;;;16.70;99.90;;;;;;4175327;28;20052;-76
2023/05/08 05:42:25;;;;;;;9.65;6.97;;;16.70;99.90;;;;;;4182159;28;20021;-75
2023/05/08 05:44:25;;;;;;;7.55;6.40;;;16.70;99.90;;;;;;4182010;28;20061;-75
2023/05/08 05:46:31;;;;;;;8.57;6.63;;;16.70;99.90;;;;;;4175679;28;20025;-75
2023/05/08 05:48:31;;;;;;;8.48;6.82;;;16.80;99.90;;;;;;4174109;28;20120;-76
2023/05/08 05:50:32;;;;;;;7.63;6.13;;;16.70;99.90;;;;;;4177220;28;20114;-76
2023/05/08 05:52:32;;;;;;;9.20;6.50;;;16.80;99.90;;;;;;4180266;28;20035;-76
2023/05/08 05:54:33;;;;;;;9.90;7.00;;;16.80;99.90;;;;;;4174714;28;20033;-77
2023/05/08 05:56:34;;;;;;;11.30;6.72;;;16.80;99.90;;;;;;4181128;28;20148;-76
2023/05/08 05:58:34;;;;;;;12.02;7.22;;;16.80;99.90;;;;;;4174986;28;20027;-76
2023/05/08 06:00:35;;;;;;;9.00;6.75;;;16.80;99.90;;;;;;4174592;28;20037;-75
2023/05/08 06:02:36;;;;;;;10.30;7.00;;;16.80;99.90;;;;;;4175963;28;20041;-76
2023/05/08 06:04:36;;;;;;;7.43;5.82;;;16.80;99.90;;;;;;4174511;28;20380;-76
2023/05/08 06:06:37;;;;;;;9.18;6.20;;;16.80;99.90;;;;;;4170429;28;20094;-76
2023/05/08 06:08:38;;;;;;;7.75;6.28;;;16.90;99.90;;;;;;4173262;28;20132;-76
2023/05/08 06:10:39;;;;;;;9.07;6.70;;;16.90;99.90;;;;;;4171839;28;20033;-77
2023/05/08 06:12:40;;;;;;;7.82;5.70;;;16.90;99.90;;;;;;4172989;28;20091;-77
2023/05/08 06:14:41;;;;;;;7.88;6.28;;;17.00;99.90;;;;;;4174351;28;20044;-77
2023/05/08 06:16:43;;;;;;;9.88;6.70;;;17.00;99.90;;;;;;4171630;28;20076;-76
2023/05/08 06:18:44;;;;;;;9.18;6.63;;;17.10;99.90;;;;;;4174832;28;20103;-76
2023/05/08 06:20:45;;;;;;;8.18;6.30;;;17.10;99.90;;;;;;4172405;28;20033;-77
2023/05/08 06:22:45;;;;;;;9.10;6.35;;;17.10;99.90;;;;;;4171433;28;20372;-77
2023/05/08 06:24:46;;;;;;;8.85;6.38;;;17.20;99.90;;;;;;4171719;28;20055;-77
2023/05/08 06:26:46;;;;;;;9.45;6.68;;;17.30;99.90;;;;;;4172375;28;20045;-78
2023/05/08 06:28:47;;;;;;;12.88;7.55;;;17.40;99.90;;;;;;4171632;28;20044;-77
2023/05/08 06:30:47;;;;;;;9.00;6.95;;;17.40;99.90;;;;;;4165962;28;21393;-78
2023/05/08 06:32:48;;;;;;;8.52;6.25;;;17.50;99.90;;;;;;4172998;28;20495;-78
2023/05/08 06:34:49;;;;;;;9.10;6.70;;;17.60;99.90;;;;;;4173183;28;20648;-75
2023/05/08 06:36:49;;;;;;;10.45;7.20;;;17.70;99.90;;;;;;4171759;28;20043;-76
2023/05/08 06:38:50;;;;;;;6.30;5.45;;;17.80;99.90;;;;;;4171929;28;20667;-76
2023/05/08 06:40:51;;;;;;;8.95;5.40;;;18.10;99.90;;;;;;4166792;28;20041;-76
2023/05/08 06:42:51;;;;;;;8.65;6.53;;;18.40;99.90;;;;;;4172657;28;20183;-76
2023/05/08 06:44:52;;;;;;;8.40;6.25;;;18.80;99.90;;;;;;4172971;28;20081;-76
2023/05/08 06:46:54;;;;;;;7.10;5.57;;;19.10;99.90;;;;;;4168810;28;20084;-76
2023/05/08 06:48:54;;;;;;;7.13;6.15;;;19.50;99.90;;;;;;4172716;28;20418;-70
2023/05/08 06:50:55;;;;;;;8.48;6.13;;;19.70;99.90;;;;;;4172437;28;20392;-76
2023/05/08 06:52:56;;;;;;;8.18;6.55;;;19.90;99.90;;;;;;4172988;28;20482;-75
2023/05/08 06:54:56;;;;;;;7.97;6.22;;;20.10;99.90;;;;;;4173103;28;20041;-74
2023/05/08 06:56:57;;;;;;;8.55;5.90;;;20.30;99.90;;;;;;4172724;28;20123;-74
2023/05/08 06:58:57;;;;;;;9.77;6.05;;;20.40;99.90;;;;;;4172456;28;20044;-75
2023/05/08 07:00:59;;;;;;;7.90;5.65;;;20.50;99.90;;;;;;4171011;28;20025;-73
2023/05/08 07:03:00;;;;;;;8.10;5.60;;;20.60;99.90;;;;;;4171951;28;20087;-75
2023/05/08 07:05:00;;;;;;;6.97;5.60;;;20.70;99.90;;;;;;4172900;28;20426;-74
2023/05/08 07:07:01;;;;;;;5.72;4.95;;;20.80;99.90;;;;;;4172425;28;20053;-74
2023/05/08 07:09:01;;;;;;;6.22;5.40;;;20.80;99.90;;;;;;4170874;28;20033;-74
2023/05/08 07:11:03;;;;;;;7.22;5.80;;;20.80;99.90;;;;;;4172428;28;20431;-74
2023/05/08 07:13:04;;;;;;;8.80;5.68;;;20.70;99.90;;;;;;4172592;28;20037;-74
2023/05/08 07:15:05;;;;;;;6.78;5.70;;;20.60;99.90;;;;;;4171063;28;20363;-73
2023/05/08 07:17:06;;;;;;;6.28;5.40;;;20.60;99.90;;;;;;4172450;28;20488;-74
2023/05/08 07:19:06;;;;;;;7.82;5.78;;;20.60;99.90;;;;;;4173837;28;20036;-75
2023/05/08 07:21:07;;;;;;;6.35;5.30;;;20.60;99.90;;;;;;4172451;28;20033;-74
2023/05/08 07:23:08;;;;;;;7.05;5.35;;;20.60;99.90;;;;;;4171528;28;20040;-73
2023/05/08 07:25:09;;;;;;;9.57;6.28;;;20.60;99.90;;;;;;4169058;28;20056;-75
2023/05/08 07:27:10;;;;;;;6.82;5.70;;;20.70;99.90;;;;;;4173119;28;20041;-74
2023/05/08 07:29:10;;;;;;;6.20;5.18;;;20.70;99.90;;;;;;4171603;28;20452;-74
2023/05/08 07:31:11;;;;;;;7.50;5.72;;;20.70;99.90;;;;;;4169410;28;20052;-74
2023/05/08 07:33:12;;;;;;;9.30;5.82;;;20.60;99.90;;;;;;4173068;28;20037;-74
2023/05/08 07:35:12;;;;;;;7.05;4.78;;;20.70;99.90;;;;;;4172054;28;20132;-74
2023/05/08 07:37:13;;;;;;;7.22;5.25;;;20.70;99.90;;;;;;4174960;28;20037;-75
2023/05/08 07:39:14;;;;;;;6.43;5.57;;;20.70;99.90;;;;;;4174028;28;20331;-74
2023/05/08 07:41:15;;;;;;;7.55;6.05;;;20.70;99.90;;;;;;4171524;28;20061;-74
2023/05/08 07:43:15;;;;;;;7.78;6.15;;;20.70;99.90;;;;;;4173788;28;20551;-74
2023/05/08 07:45:16;;;;;;;7.30;5.75;;;20.70;99.90;;;;;;4172365;28;20041;-74
2023/05/08 07:47:17;;;;;;;8.40;5.63;;;20.70;99.90;;;;;;4174640;28;20048;-74
2023/05/08 07:49:17;;;;;;;6.88;5.10;;;20.60;99.90;;;;;;4172857;28;20168;-74
2023/05/08 07:51:18;;;;;;;6.78;4.93;;;20.60;99.90;;;;;;4173976;28;20129;-73
2023/05/08 07:53:18;;;;;;;7.20;5.68;;;20.60;99.90;;;;;;4175914;28;20033;-74
2023/05/08 07:55:20;;;;;;;5.75;5.00;;;20.40;99.90;;;;;;4173629;28;20175;-74
2023/05/08 07:57:20;;;;;;;7.25;5.65;;;20.40;99.90;;;;;;4175494;28;20037;-73
2023/05/08 07:59:21;;;;;;;7.55;5.57;;;20.40;99.90;;;;;;4174944;28;20095;-74
2023/05/08 08:01:22;;;;;;;6.55;5.18;;;20.40;99.90;;;;;;4173368;28;20044;-75
2023/05/08 08:03:22;;;;;;;5.88;5.28;;;20.30;99.90;;;;;;4174177;28;20337;-74
2023/05/08 08:05:23;;;;;;;7.68;6.18;;;20.40;99.90;;;;;;4174215;28;20040;-74
2023/05/08 08:07:23;;;;;;;10.00;6.20;;;20.30;99.90;;;;;;4174214;28;20065;-75
2023/05/08 08:09:24;;;;;;;8.30;6.80;;;20.30;99.90;;;;;;4174455;28;20361;-74
2023/05/08 08:11:25;;;;;;;10.98;8.18;;;20.30;99.90;;;;;;4174340;28;20060;-74
2023/05/08 08:13:25;;;;;;;12.00;8.43;;;20.30;99.90;;;;;;4172960;28;20104;-70
2023/05/08 08:15:27;;;;;;;12.65;9.80;;;20.40;99.90;;;;;;4171946;28;20048;-74
2023/05/08 08:17:28;;;;;;;8.60;7.37;;;20.40;99.90;;;;;;4176363;28;20128;-73
2023/05/08 08:19:28;;;;;;;10.38;8.20;;;20.50;99.90;;;;;;4175061;28;20931;-74
2023/05/08 08:21:30;;;;;;;11.45;7.70;;;20.50;99.90;;;;;;4175015;28;20132;-75
2023/05/08 08:23:30;;;;;;;10.30;8.52;;;20.50;99.90;;;;;;4174148;28;20056;-71
2023/05/08 08:25:31;;;;;;;8.75;7.55;;;20.60;99.90;;;;;;4173006;28;20090;-73
2023/05/08 08:27:32;;;;;;;11.77;9.07;;;20.50;99.90;;;;;;4170330;28;20577;-75
2023/05/08 08:29:32;;;;;;;9.45;7.90;;;20.60;99.90;;;;;;4174516;28;20033;-74
2023/05/08 08:31:33;;;;;;;10.30;8.20;;;20.60;99.90;;;;;;4171965;28;20029;-75
2023/05/08 08:33:34;;;;;;;10.70;8.38;;;20.60;99.90;;;;;;4174362;28;20112;-75
2023/05/08 08:35:34;;;;;;;7.95;6.65;;;20.70;99.90;;;;;;4173292;28;20126;-75
2023/05/08 08:37:35;;;;;;;8.40;6.63;;;20.70;99.90;;;;;;4175675;28;20029;-75
2023/05/08 08:39:36;;;;;;;7.80;6.03;;;20.70;99.90;;;;;;4173328;28;20041;-74
2023/05/08 08:41:38;;;;;;;7.57;6.07;;;20.70;99.90;;;;;;4172657;28;20032;-75
2023/05/08 08:43:42;;;;;;;6.93;5.00;;;20.70;99.90;;;;;;4175959;28;20123;-76
2023/05/08 08:45:42;;;;;;;5.85;4.47;;;20.70;99.90;;;;;;4171455;28;20045;-75
2023/05/08 08:47:44;;;;;;;5.53;4.50;;;20.80;99.90;;;;;;4170652;28;20483;-74
2023/05/08 08:49:49;;;;;;;7.60;5.47;;;20.80;99.90;;;;;;4173073;28;20415;-75
2023/05/08 08:51:54;;;;;;;5.32;4.57;;;20.90;99.90;;;;;;4174982;28;20063;-74
2023/05/08 08:54:08;;;;;;;5.95;4.70;;;20.90;99.90;;;;;;4171997;28;20041;-73
2023/05/08 08:56:11;;;;;;;5.63;4.40;;;20.90;99.90;;;;;;4169262;28;20110;-73
2023/05/08 08:58:17;;;;;;;8.30;4.75;;;21.10;99.90;;;;;;4172982;28;20037;-73
2023/05/08 09:00:19;;;;;;;4.90;3.67;;;21.20;99.90;;;;;;4171730;28;20048;-73
2023/05/08 09:02:22;;;;;;;5.50;4.03;;;21.10;99.90;;;;;;4174982;28;20056;-74
2023/05/08 09:04:26;;;;;;;4.80;3.45;;;21.20;99.90;;;;;;4174410;28;20540;-73
2023/05/08 09:06:27;;;;;;;4.53;3.15;;;21.30;99.90;;;;;;4173899;28;20083;-70
2023/05/08 09:08:28;;;;;;;3.97;3.30;;;21.20;99.90;;;;;;4172551;28;20029;-73
2023/05/08 09:10:29;;;;;;;4.28;2.90;;;21.20;99.90;;;;;;4174625;28;20083;-73
2023/05/08 09:12:29;;;;;;;3.55;3.00;;;21.30;99.90;;;;;;4173940;28;20120;-74
2023/05/08 09:14:30;;;;;;;4.35;2.97;;;21.40;99.90;;;;;;4173214;28;20040;-72
2023/05/08 09:16:31;;;;;;;6.22;3.03;;;21.50;99.90;;;;;;4172823;28;20033;-73
2023/05/08 09:18:31;;;;;;;3.38;2.55;;;21.50;99.90;;;;;;4173861;28;20455;-72
2023/05/08 09:20:33;;;;;;;2.58;2.20;;;21.50;99.90;;;;;;4174131;28;20032;-72
2023/05/08 09:22:35;;;;;;;3.03;2.38;;;21.50;99.90;;;;;;4173079;28;20464;-73
2023/05/08 09:24:59;;;;;;;3.40;2.40;;;21.60;99.90;;;;;;4172241;28;20045;-73
2023/05/08 09:26:59;;;;;;;3.00;2.30;;;21.60;99.90;;;;;;4172741;28;20033;-73
2023/05/08 09:29:12;;;;;;;4.57;3.25;;;21.60;99.90;;;;;;4174092;28;20436;-73
2023/05/08 09:31:12;;;;;;;3.85;2.80;;;21.60;99.90;;;;;;4168274;28;20456;-73
2023/05/08 09:33:13;;;;;;;2.45;2.15;;;21.70;99.90;;;;;;4172708;28;20072;-72
2023/05/08 09:35:13;;;;;;;3.40;2.55;;;21.80;99.90;;;;;;4173600;28;20048;-73
2023/05/08 09:37:14;;;;;;;3.67;3.30;;;21.90;99.90;;;;;;4174075;28;20515;-73
2023/05/08 09:39:22;;;;;;;4.97;3.72;;;21.90;99.90;;;;;;4173829;28;20047;-72
2023/05/08 09:41:23;;;;;;;3.53;3.22;;;21.90;99.90;;;;;;4169037;28;20492;-72
2023/05/08 09:43:23;;;;;;;3.78;3.42;;;22.00;99.90;;;;;;4173057;28;20108;-71
2023/05/08 09:45:30;;;;;;;5.35;4.05;;;22.10;99.90;;;;;;4170277;28;20033;-72
2023/05/08 09:47:30;;;;;;;5.43;4.40;;;22.20;99.90;;;;;;4173528;28;20438;-72
2023/05/08 09:49:31;;;;;;;5.47;4.85;;;22.20;99.90;;;;;;4172191;28;20033;-72
2023/05/08 09:51:32;;;;;;;5.40;4.90;;;22.30;99.90;;;;;;4170894;28;20037;-73
2023/05/08 09:53:32;;;;;;;6.80;3.95;;;22.20;99.90;;;;;;4173687;28;20127;-71
2023/05/08 09:55:46;;;;;;;7.32;4.38;;;22.20;99.90;;;;;;4171555;28;20076;-73
2023/05/08 09:58:00;;;;;;;10.05;5.18;;;22.30;99.90;;;;;;4173133;28;20037;-72
2023/05/08 10:00:02;;;;;;;4.65;4.10;;;22.30;99.90;;;;;;4170690;28;20554;-72
2023/05/08 10:02:09;;;;;;;;;;;22.40;99.90;;;;;;4171913;28;20068;-72
2023/05/08 10:04:09;;;;;;;3.88;3.58;;;22.40;99.90;;;;;;4171720;28;19924;-73
2023/05/08 10:06:14;;;;;;;4.38;3.70;;;22.50;99.90;;;;;;4172230;28;20376;-74
2023/05/08 10:08:20;;;;;;;4.75;4.22;;;22.50;99.90;;;;;;4173691;28;20045;-73
2023/05/08 10:10:29;;;;;;;6.63;4.80;;;22.50;99.90;;;;;;4169738;28;20087;-73
2023/05/08 10:12:30;;;;;;;4.55;4.10;;;22.50;99.90;;;;;;4173373;28;20037;-72
2023/05/08 10:14:31;;;;;;;5.85;4.20;;;22.40;99.90;;;;;;4172633;28;20064;-72
2023/05/08 10:16:45;;;;;;;4.35;3.70;;;22.40;99.90;;;;;;4171264;28;20031;-71
2023/05/08 10:18:48;;;;;;;4.90;4.05;;;22.40;99.90;;;;;;4173773;28;20131;-72
2023/05/08 10:20:51;;;;;;;4.63;3.70;;;22.40;99.90;;;;;;4173305;28;20546;-73
2023/05/08 10:22:53;;;;;;;6.45;4.57;;;22.50;99.90;;;;;;4173936;28;20028;-72
2023/05/08 10:24:57;;;;;;;4.10;3.70;;;22.50;99.90;;;;;;4172082;28;20036;-73
2023/05/08 10:27:12;;;;;;;7.07;5.03;;;22.50;99.90;;;;;;4167502;28;20037;-71
2023/05/08 10:29:20;;;;;;;6.10;5.38;;;22.50;99.90;;;;;;4171503;28;20037;-73
2023/05/08 10:31:23;;;;;;;5.68;4.65;;;22.50;99.90;;;;;;4169794;28;20041;-73
2023/05/08 10:33:30;;;;;;;4.90;4.22;;;22.50;99.90;;;;;;4173895;28;20059;-73
2023/05/08 10:35:31;;;;;;;6.03;4.63;;;22.50;99.90;;;;;;4164476;28;20041;-73
2023/05/08 10:37:34;;;;;;;5.63;4.30;;;22.50;99.90;;;;;;4172261;28;20037;-73
2023/05/08 10:39:36;;;;;;;5.78;4.55;;;22.50;99.90;;;;;;4169786;28;20025;-74
2023/05/08 10:41:37;;;;;;;5.32;4.40;;;22.50;99.90;;;;;;4171636;28;20045;-73
2023/05/08 10:43:41;;;;;;;7.03;4.43;;;22.50;99.90;;;;;;4171118;28;20116;-73